ETD602 OEJN-OMAA
Flight info
| Callsign | ETD602 |
|---|---|
| Flight time | 1h 56m |
| Altitude | 39000 |
| Route | EGREP T532 KODIS Y214 RIBOT M550 GOLGU M318 ATUDO |
| Aircraft | B77W/H-SDE1E2E3FGHIJ2J3J4J5M1RWXY/LB1D1 |
Departure
| Time | 2025-10-26 02:44 |
|---|---|
| Airport | King Abdulaziz International Airport (OEJN) |
Arrival
| Time | 2025-10-26 04:40 |
|---|---|
| Airport | Zayed International Airport (OMAA) |
| Time | Latitude | Longitude | Altitude | Speed | Heading |
|---|---|---|---|---|---|
| 2025-10-26 02:31 | 21.66612 | 39.17046 | 48 ft | 0 kts | 65° |
| 2025-10-26 02:36 | 21.66602 | 39.17011 | 43 ft | 2 kts | 84° |
| 2025-10-26 02:37 | 21.66607 | 39.16977 | 44 ft | 2 kts | 124° |
| 2025-10-26 02:37 | 21.66618 | 39.16964 | 41 ft | 2 kts | 144° |
| 2025-10-26 02:37 | 21.66636 | 39.16953 | 42 ft | 0 kts | 159° |
| 2025-10-26 02:39 | 21.66527 | 39.16992 | 47 ft | 12 kts | 163° |
| 2025-10-26 02:40 | 21.66325 | 39.16994 | 46 ft | 16 kts | 219° |
| 2025-10-26 02:40 | 21.66233 | 39.16776 | 43 ft | 16 kts | 250° |
| 2025-10-26 02:40 | 21.66194 | 39.16661 | 42 ft | 16 kts | 250° |
| 2025-10-26 02:41 | 21.66172 | 39.16470 | 39 ft | 11 kts | 321° |
| 2025-10-26 02:41 | 21.66235 | 39.16441 | 39 ft | 0 kts | 339° |
| 2025-10-26 02:42 | 21.67058 | 39.16118 | 40 ft | 160 kts | 340° |
| 2025-10-26 02:43 | 21.71580 | 39.14286 | 2705 ft | 258 kts | 341° |
| 2025-10-26 02:43 | 21.73283 | 39.13620 | 3488 ft | 264 kts | 342° |
| 2025-10-26 02:44 | 21.76799 | 39.12256 | 5080 ft | 273 kts | 342° |
| 2025-10-26 02:44 | 21.80432 | 39.10833 | 6681 ft | 283 kts | 341° |
| 2025-10-26 02:45 | 21.84164 | 39.09365 | 8348 ft | 289 kts | 340° |
| 2025-10-26 02:45 | 21.88013 | 39.08093 | 9940 ft | 294 kts | 358° |
| 2025-10-26 02:46 | 21.92000 | 39.09555 | 10665 ft | 330 kts | 37° |
| 2025-10-26 02:47 | 21.99259 | 39.17232 | 12455 ft | 393 kts | 46° |
| 2025-10-26 02:47 | 22.01165 | 39.19385 | 13232 ft | 397 kts | 46° |
| 2025-10-26 02:48 | 22.05042 | 39.23736 | 14598 ft | 407 kts | 46° |
| 2025-10-26 02:48 | 22.09018 | 39.28165 | 15927 ft | 415 kts | 46° |
| 2025-10-26 02:49 | 22.13071 | 39.32663 | 17216 ft | 424 kts | 46° |
| 2025-10-26 02:49 | 22.17249 | 39.37301 | 18460 ft | 433 kts | 45° |
| 2025-10-26 02:50 | 22.21459 | 39.41976 | 19517 ft | 442 kts | 45° |
| 2025-10-26 02:50 | 22.23615 | 39.44373 | 20013 ft | 447 kts | 45° |
| 2025-10-26 02:50 | 22.27984 | 39.49234 | 21054 ft | 455 kts | 45° |
| 2025-10-26 02:51 | 22.34698 | 39.56712 | 22559 ft | 469 kts | 45° |
| 2025-10-26 02:52 | 22.39275 | 39.61817 | 23505 ft | 477 kts | 44° |
| 2025-10-26 02:52 | 22.43931 | 39.67015 | 24305 ft | 485 kts | 44° |
| 2025-10-26 02:53 | 22.48654 | 39.72295 | 25116 ft | 491 kts | 44° |
| 2025-10-26 02:54 | 22.65595 | 39.91272 | 27731 ft | 514 kts | 44° |
| 2025-10-26 02:57 | 22.88447 | 40.16991 | 30675 ft | 532 kts | 43° |
| 2025-10-26 02:59 | 23.06330 | 40.37211 | 33122 ft | 530 kts | 43° |
| 2025-10-26 03:01 | 23.26394 | 40.60598 | 35475 ft | 532 kts | 53° |
| 2025-10-26 03:03 | 23.37761 | 40.90284 | 37564 ft | 531 kts | 68° |
| 2025-10-26 03:05 | 23.48311 | 41.20811 | 38439 ft | 544 kts | 69° |
| 2025-10-26 03:07 | 23.58972 | 41.51920 | 39077 ft | 550 kts | 69° |
| 2025-10-26 03:09 | 23.69539 | 41.83355 | 39144 ft | 555 kts | 71° |
| 2025-10-26 03:11 | 23.79901 | 42.15073 | 39142 ft | 555 kts | 68° |
| 2025-10-26 03:13 | 23.90645 | 42.46637 | 39140 ft | 553 kts | 69° |
| 2025-10-26 03:15 | 24.01289 | 42.78223 | 39198 ft | 555 kts | 69° |
| 2025-10-26 03:17 | 23.98138 | 43.13329 | 39132 ft | 550 kts | 110° |
| 2025-10-26 03:18 | 23.90468 | 43.41443 | 39131 ft | 554 kts | 109° |
| 2025-10-26 03:21 | 23.80480 | 43.77770 | 39123 ft | 555 kts | 110° |
| 2025-10-26 03:22 | 23.76024 | 44.06821 | 39111 ft | 559 kts | 96° |
| 2025-10-26 03:25 | 23.73179 | 44.44852 | 39113 ft | 559 kts | 96° |
| 2025-10-26 03:26 | 23.70869 | 44.74443 | 39107 ft | 558 kts | 96° |
| 2025-10-26 03:28 | 23.68164 | 45.08113 | 39102 ft | 558 kts | 96° |
| 2025-10-26 03:31 | 23.64683 | 45.50212 | 39099 ft | 558 kts | 96° |
| 2025-10-26 03:32 | 23.62543 | 45.75498 | 39082 ft | 558 kts | 96° |
| 2025-10-26 03:34 | 23.59639 | 46.09150 | 39057 ft | 558 kts | 97° |
| 2025-10-26 03:37 | 23.56283 | 46.47030 | 39034 ft | 557 kts | 97° |
| 2025-10-26 03:39 | 23.52805 | 46.84760 | 39006 ft | 556 kts | 97° |
| 2025-10-26 03:41 | 23.50032 | 47.14122 | 38997 ft | 556 kts | 97° |
| 2025-10-26 03:43 | 23.47207 | 47.43424 | 38982 ft | 556 kts | 97° |
| 2025-10-26 03:45 | 23.43521 | 47.81126 | 38972 ft | 556 kts | 97° |
| 2025-10-26 03:47 | 23.40606 | 48.10366 | 38971 ft | 555 kts | 97° |
| 2025-10-26 03:49 | 23.37728 | 48.43847 | 38972 ft | 555 kts | 93° |
| 2025-10-26 03:51 | 23.36439 | 48.77406 | 38963 ft | 555 kts | 93° |
| 2025-10-26 03:53 | 23.34987 | 49.10951 | 38963 ft | 555 kts | 93° |
| 2025-10-26 03:55 | 23.33075 | 49.52909 | 38973 ft | 556 kts | 93° |
| 2025-10-26 03:57 | 23.31667 | 49.82341 | 38985 ft | 556 kts | 94° |
| 2025-10-26 03:59 | 23.30206 | 50.11715 | 38979 ft | 556 kts | 94° |
| 2025-10-26 04:01 | 23.28333 | 50.47871 | 38973 ft | 556 kts | 94° |
| 2025-10-26 04:02 | 23.26751 | 50.77220 | 38967 ft | 556 kts | 94° |
| 2025-10-26 04:04 | 23.24873 | 51.10816 | 38963 ft | 556 kts | 94° |
| 2025-10-26 04:06 | 23.22890 | 51.44318 | 38963 ft | 555 kts | 94° |
| 2025-10-26 04:08 | 23.20102 | 51.77717 | 38953 ft | 555 kts | 96° |
| 2025-10-26 04:11 | 23.16856 | 52.15316 | 38959 ft | 554 kts | 96° |
| 2025-10-26 04:12 | 23.15921 | 52.44449 | 38968 ft | 553 kts | 78° |
| 2025-10-26 04:15 | 23.31407 | 52.77684 | 38965 ft | 550 kts | 58° |
| 2025-10-26 04:16 | 23.44490 | 53.02983 | 38959 ft | 550 kts | 57° |
| 2025-10-26 04:19 | 23.61711 | 53.35228 | 38774 ft | 528 kts | 57° |
| 2025-10-26 04:21 | 23.76215 | 53.62563 | 34605 ft | 520 kts | 57° |
| 2025-10-26 04:23 | 23.90591 | 53.89708 | 30086 ft | 507 kts | 56° |
| 2025-10-26 04:25 | 24.04254 | 54.15764 | 25383 ft | 481 kts | 57° |
| 2025-10-26 04:25 | 24.05891 | 54.18938 | 24841 ft | 478 kts | 57° |
| 2025-10-26 04:26 | 24.09136 | 54.25230 | 23788 ft | 471 kts | 57° |
| 2025-10-26 04:26 | 24.12339 | 54.31439 | 22604 ft | 464 kts | 58° |
| 2025-10-26 04:27 | 24.16595 | 54.39714 | 20803 ft | 407 kts | 57° |
| 2025-10-26 04:27 | 24.19256 | 54.44882 | 19628 ft | 374 kts | 57° |
| 2025-10-26 04:28 | 24.21702 | 54.49636 | 18522 ft | 348 kts | 57° |
| 2025-10-26 04:28 | 24.22878 | 54.51909 | 17924 ft | 336 kts | 54° |
| 2025-10-26 04:29 | 24.25795 | 54.55624 | 16683 ft | 310 kts | 36° |
| 2025-10-26 04:29 | 24.29277 | 54.58150 | 15490 ft | 291 kts | 23° |
| 2025-10-26 04:30 | 24.32896 | 54.59936 | 14349 ft | 280 kts | 21° |
| 2025-10-26 04:30 | 24.36427 | 54.61670 | 13197 ft | 275 kts | 22° |
| 2025-10-26 04:31 | 24.41673 | 54.64335 | 11535 ft | 288 kts | 24° |
| 2025-10-26 04:31 | 24.45411 | 54.66261 | 10463 ft | 304 kts | 24° |
| 2025-10-26 04:32 | 24.49418 | 54.67910 | 9285 ft | 311 kts | 0° |
| 2025-10-26 04:32 | 24.51533 | 54.67508 | 8721 ft | 309 kts | 335° |
| 2025-10-26 04:33 | 24.54582 | 54.64594 | 7696 ft | 279 kts | 307° |
| 2025-10-26 04:33 | 24.56821 | 54.61306 | 6763 ft | 258 kts | 307° |
| 2025-10-26 04:34 | 24.58908 | 54.58289 | 5960 ft | 244 kts | 307° |
| 2025-10-26 04:34 | 24.60970 | 54.55295 | 5208 ft | 245 kts | 300° |
| 2025-10-26 04:35 | 24.59703 | 54.50337 | 4363 ft | 250 kts | 209° |
| 2025-10-26 04:35 | 24.56363 | 54.50500 | 3631 ft | 254 kts | 146° |
| 2025-10-26 04:36 | 24.54008 | 54.53179 | 2673 ft | 237 kts | 128° |
| 2025-10-26 04:36 | 24.53051 | 54.54552 | 2220 ft | 219 kts | 128° |
| 2025-10-26 04:37 | 24.51379 | 54.56934 | 1987 ft | 177 kts | 128° |
| 2025-10-26 04:37 | 24.49854 | 54.59094 | 1376 ft | 181 kts | 128° |
| 2025-10-26 04:38 | 24.48385 | 54.61173 | 667 ft | 159 kts | 128° |
| 2025-10-26 04:38 | 24.46963 | 54.63188 | 246 ft | 169 kts | 129° |
| 2025-10-26 04:38 | 24.46250 | 54.64191 | 90 ft | 162 kts | 129° |
| 2025-10-26 04:39 | 24.44670 | 54.66184 | 94 ft | 42 kts | 158° |
| 2025-10-26 04:40 | 24.44506 | 54.66261 | 94 ft | 16 kts | 212° |
| 2025-10-26 04:40 | 24.44643 | 54.65985 | 95 ft | 21 kts | 308° |
| 2025-10-26 04:41 | 24.44854 | 54.65654 | 96 ft | 21 kts | 263° |
| 2025-10-26 04:41 | 24.44634 | 54.65441 | 97 ft | 21 kts | 217° |
| 2025-10-26 04:42 | 24.44386 | 54.65230 | 98 ft | 22 kts | 224° |
| 2025-10-26 04:42 | 24.44460 | 54.65022 | 96 ft | 19 kts | 308° |
| 2025-10-26 04:43 | 24.44586 | 54.64756 | 96 ft | 17 kts | 262° |
| 2025-10-26 04:43 | 24.44735 | 54.64559 | 97 ft | 17 kts | 329° |
| 2025-10-26 04:44 | 24.44918 | 54.64501 | 96 ft | 12 kts | 344° |
| 2025-10-26 04:44 | 24.45008 | 54.64448 | 95 ft | 0 kts | 329° |